sensor_id;sensor_type;location;lat;lon;timestamp;temperature;humidity
67752;DHT22;54551;51.068;5.826;2022-08-21T00:01:50;17.20;99.90
67752;DHT22;54551;51.068;5.826;2022-08-21T00:04:16;17.10;99.90
67752;DHT22;54551;51.068;5.826;2022-08-21T00:06:42;17.10;99.90
67752;DHT22;54551;51.068;5.826;2022-08-21T00:09:09;17.00;99.90
67752;DHT22;54551;51.068;5.826;2022-08-21T00:11:37;17.00;99.90
67752;DHT22;54551;51.068;5.826;2022-08-21T00:14:04;17.00;99.90
67752;DHT22;54551;51.068;5.826;2022-08-21T00:16:31;17.00;99.90
67752;DHT22;54551;51.068;5.826;2022-08-21T00:18:57;17.00;99.90
67752;DHT22;54551;51.068;5.826;2022-08-21T00:21:23;17.00;99.90
67752;DHT22;54551;51.068;5.826;2022-08-21T00:23:51;17.00;99.90
67752;DHT22;54551;51.068;5.826;2022-08-21T00:26:17;17.00;99.90
67752;DHT22;54551;51.068;5.826;2022-08-21T00:28:43;17.00;99.90
67752;DHT22;54551;51.068;5.826;2022-08-21T00:31:11;17.00;99.90
67752;DHT22;54551;51.068;5.826;2022-08-21T00:33:37;17.00;99.90
67752;DHT22;54551;51.068;5.826;2022-08-21T00:36:03;17.00;99.90
67752;DHT22;54551;51.068;5.826;2022-08-21T00:38:30;17.00;99.90
67752;DHT22;54551;51.068;5.826;2022-08-21T00:41:00;17.00;99.90
67752;DHT22;54551;51.068;5.826;2022-08-21T00:43:29;16.90;99.90
67752;DHT22;54551;51.068;5.826;2022-08-21T00:45:56;16.90;99.90
67752;DHT22;54551;51.068;5.826;2022-08-21T00:48:23;16.90;99.90
67752;DHT22;54551;51.068;5.826;2022-08-21T00:51:05;16.90;99.90
67752;DHT22;54551;51.068;5.826;2022-08-21T00:53:32;16.90;99.90
67752;DHT22;54551;51.068;5.826;2022-08-21T00:56:00;16.90;99.90
67752;DHT22;54551;51.068;5.826;2022-08-21T00:58:29;16.90;99.90
67752;DHT22;54551;51.068;5.826;2022-08-21T01:00:56;16.80;99.90
67752;DHT22;54551;51.068;5.826;2022-08-21T01:03:24;16.80;99.90
67752;DHT22;54551;51.068;5.826;2022-08-21T01:05:52;16.80;99.90
67752;DHT22;54551;51.068;5.826;2022-08-21T01:08:18;16.80;99.90
67752;DHT22;54551;51.068;5.826;2022-08-21T01:10:45;16.70;99.90
67752;DHT22;54551;51.068;5.826;2022-08-21T01:13:15;16.70;99.90
67752;DHT22;54551;51.068;5.826;2022-08-21T01:15:45;16.70;99.90
67752;DHT22;54551;51.068;5.826;2022-08-21T01:18:13;16.70;99.90
67752;DHT22;54551;51.068;5.826;2022-08-21T01:20:45;16.70;99.90
67752;DHT22;54551;51.068;5.826;2022-08-21T01:23:11;16.70;99.90
67752;DHT22;54551;51.068;5.826;2022-08-21T01:25:38;16.70;99.90
67752;DHT22;54551;51.068;5.826;2022-08-21T01:28:12;16.70;99.90
67752;DHT22;54551;51.068;5.826;2022-08-21T01:30:40;16.70;99.90
67752;DHT22;54551;51.068;5.826;2022-08-21T01:33:06;16.70;99.90
67752;DHT22;54551;51.068;5.826;2022-08-21T01:35:32;16.60;99.90
67752;DHT22;54551;51.068;5.826;2022-08-21T01:37:58;16.60;99.90
67752;DHT22;54551;51.068;5.826;2022-08-21T01:40:23;16.60;99.90
67752;DHT22;54551;51.068;5.826;2022-08-21T01:42:49;16.60;99.90
67752;DHT22;54551;51.068;5.826;2022-08-21T01:45:15;16.60;99.90
67752;DHT22;54551;51.068;5.826;2022-08-21T01:47:43;16.60;99.90
67752;DHT22;54551;51.068;5.826;2022-08-21T01:50:12;16.60;99.90
67752;DHT22;54551;51.068;5.826;2022-08-21T01:52:38;16.60;99.90
67752;DHT22;54551;51.068;5.826;2022-08-21T01:55:07;16.60;99.90
67752;DHT22;54551;51.068;5.826;2022-08-21T01:57:33;16.60;99.90
67752;DHT22;54551;51.068;5.826;2022-08-21T01:59:59;16.60;99.90
67752;DHT22;54551;51.068;5.826;2022-08-21T02:02:25;16.60;99.90
67752;DHT22;54551;51.068;5.826;2022-08-21T02:04:51;16.60;99.90
67752;DHT22;54551;51.068;5.826;2022-08-21T02:07:17;16.50;99.90
67752;DHT22;54551;51.068;5.826;2022-08-21T02:09:44;16.50;99.90
67752;DHT22;54551;51.068;5.826;2022-08-21T02:12:11;16.50;99.90
67752;DHT22;54551;51.068;5.826;2022-08-21T02:14:38;16.50;99.90
67752;DHT22;54551;51.068;5.826;2022-08-21T02:17:04;16.40;99.90
67752;DHT22;54551;51.068;5.826;2022-08-21T02:19:30;16.40;99.90
67752;DHT22;54551;51.068;5.826;2022-08-21T02:21:56;16.40;99.90
67752;DHT22;54551;51.068;5.826;2022-08-21T02:24:21;16.30;99.90
67752;DHT22;54551;51.068;5.826;2022-08-21T02:26:47;16.30;99.90
67752;DHT22;54551;51.068;5.826;2022-08-21T02:29:13;16.30;99.90
67752;DHT22;54551;51.068;5.826;2022-08-21T02:31:39;16.30;99.90
67752;DHT22;54551;51.068;5.826;2022-08-21T02:34:05;16.30;99.90
67752;DHT22;54551;51.068;5.826;2022-08-21T02:36:31;16.20;99.90
67752;DHT22;54551;51.068;5.826;2022-08-21T02:38:57;16.30;99.90
67752;DHT22;54551;51.068;5.826;2022-08-21T02:41:23;16.20;99.90
67752;DHT22;54551;51.068;5.826;2022-08-21T02:43:49;16.20;99.90
67752;DHT22;54551;51.068;5.826;2022-08-21T02:46:17;16.20;99.90
67752;DHT22;54551;51.068;5.826;2022-08-21T02:48:44;16.20;99.90
67752;DHT22;54551;51.068;5.826;2022-08-21T02:51:19;16.20;99.90
67752;DHT22;54551;51.068;5.826;2022-08-21T02:53:46;16.20;99.90
67752;DHT22;54551;51.068;5.826;2022-08-21T02:56:15;16.20;99.90
67752;DHT22;54551;51.068;5.826;2022-08-21T02:58:48;16.20;99.90
67752;DHT22;54551;51.068;5.826;2022-08-21T03:01:15;16.20;99.90
67752;DHT22;54551;51.068;5.826;2022-08-21T03:03:43;16.20;99.90
67752;DHT22;54551;51.068;5.826;2022-08-21T03:06:12;16.20;99.90
67752;DHT22;54551;51.068;5.826;2022-08-21T03:08:39;16.20;99.90
67752;DHT22;54551;51.068;5.826;2022-08-21T03:11:07;16.20;99.90
67752;DHT22;54551;51.068;5.826;2022-08-21T03:13:33;16.20;99.90
67752;DHT22;54551;51.068;5.826;2022-08-21T03:15:59;16.20;99.90
67752;DHT22;54551;51.068;5.826;2022-08-21T03:18:25;16.20;99.90
67752;DHT22;54551;51.068;5.826;2022-08-21T03:20:51;16.20;99.90
67752;DHT22;54551;51.068;5.826;2022-08-21T03:23:17;16.20;99.90
67752;DHT22;54551;51.068;5.826;2022-08-21T03:25:45;16.20;99.90
67752;DHT22;54551;51.068;5.826;2022-08-21T03:28:14;16.20;99.90
67752;DHT22;54551;51.068;5.826;2022-08-21T03:30:42;16.20;99.90
67752;DHT22;54551;51.068;5.826;2022-08-21T03:33:08;16.30;99.90
67752;DHT22;54551;51.068;5.826;2022-08-21T03:35:34;16.30;99.90
67752;DHT22;54551;51.068;5.826;2022-08-21T03:38:01;16.30;99.90
67752;DHT22;54551;51.068;5.826;2022-08-21T03:40:27;16.30;99.90
67752;DHT22;54551;51.068;5.826;2022-08-21T03:42:53;16.30;99.90
67752;DHT22;54551;51.068;5.826;2022-08-21T03:45:20;16.30;99.90
67752;DHT22;54551;51.068;5.826;2022-08-21T03:47:57;16.40;99.90
67752;DHT22;54551;51.068;5.826;2022-08-21T03:50:25;16.40;99.90
67752;DHT22;54551;51.068;5.826;2022-08-21T03:52:51;16.40;99.90
67752;DHT22;54551;51.068;5.826;2022-08-21T03:55:17;16.40;99.90
67752;DHT22;54551;51.068;5.826;2022-08-21T03:57:43;16.40;99.90
67752;DHT22;54551;51.068;5.826;2022-08-21T04:00:10;16.40;99.90
67752;DHT22;54551;51.068;5.826;2022-08-21T04:02:38;16.40;99.90
67752;DHT22;54551;51.068;5.826;2022-08-21T04:05:05;16.40;99.90
67752;DHT22;54551;51.068;5.826;2022-08-21T04:07:31;16.40;99.90
67752;DHT22;54551;51.068;5.826;2022-08-21T04:09:57;16.40;99.90
67752;DHT22;54551;51.068;5.826;2022-08-21T04:12:23;16.30;99.90
67752;DHT22;54551;51.068;5.826;2022-08-21T04:14:49;16.30;99.90
67752;DHT22;54551;51.068;5.826;2022-08-21T04:17:17;16.30;99.90
67752;DHT22;54551;51.068;5.826;2022-08-21T04:19:43;16.20;99.90
67752;DHT22;54551;51.068;5.826;2022-08-21T04:22:09;16.20;99.90
67752;DHT22;54551;51.068;5.826;2022-08-21T04:24:35;16.10;99.90
67752;DHT22;54551;51.068;5.826;2022-08-21T04:27:01;16.10;99.90
67752;DHT22;54551;51.068;5.826;2022-08-21T04:29:27;16.10;99.90
67752;DHT22;54551;51.068;5.826;2022-08-21T04:31:53;16.10;99.90
67752;DHT22;54551;51.068;5.826;2022-08-21T04:34:18;16.10;99.90
67752;DHT22;54551;51.068;5.826;2022-08-21T04:36:44;16.00;99.90
67752;DHT22;54551;51.068;5.826;2022-08-21T04:39:10;16.00;99.90
67752;DHT22;54551;51.068;5.826;2022-08-21T04:41:36;16.00;99.90
67752;DHT22;54551;51.068;5.826;2022-08-21T04:44:03;15.90;99.90
67752;DHT22;54551;51.068;5.826;2022-08-21T04:46:29;15.90;99.90
67752;DHT22;54551;51.068;5.826;2022-08-21T04:48:55;15.80;99.90
67752;DHT22;54551;51.068;5.826;2022-08-21T04:51:28;15.80;99.90
67752;DHT22;54551;51.068;5.826;2022-08-21T04:54:01;15.80;99.90
67752;DHT22;54551;51.068;5.826;2022-08-21T04:56:32;15.80;99.90
67752;DHT22;54551;51.068;5.826;2022-08-21T04:59:04;15.90;99.90
67752;DHT22;54551;51.068;5.826;2022-08-21T05:01:32;16.00;99.90
67752;DHT22;54551;51.068;5.826;2022-08-21T05:04:01;16.10;99.90
67752;DHT22;54551;51.068;5.826;2022-08-21T05:06:29;16.10;99.90
67752;DHT22;54551;51.068;5.826;2022-08-21T05:08:57;16.20;99.90
67752;DHT22;54551;51.068;5.826;2022-08-21T05:11:23;16.30;99.90
67752;DHT22;54551;51.068;5.826;2022-08-21T05:13:49;16.40;99.90
67752;DHT22;54551;51.068;5.826;2022-08-21T05:16:16;16.40;99.90
67752;DHT22;54551;51.068;5.826;2022-08-21T05:18:42;16.50;99.90
67752;DHT22;54551;51.068;5.826;2022-08-21T05:21:08;16.50;99.90
67752;DHT22;54551;51.068;5.826;2022-08-21T05:23:35;16.70;99.90
67752;DHT22;54551;51.068;5.826;2022-08-21T05:26:02;16.80;99.90
67752;DHT22;54551;51.068;5.826;2022-08-21T05:28:30;17.00;99.90
67752;DHT22;54551;51.068;5.826;2022-08-21T05:30:56;17.10;99.90
67752;DHT22;54551;51.068;5.826;2022-08-21T05:33:22;17.20;99.90
67752;DHT22;54551;51.068;5.826;2022-08-21T05:35:52;17.20;99.90
67752;DHT22;54551;51.068;5.826;2022-08-21T05:38:22;17.30;99.90
67752;DHT22;54551;51.068;5.826;2022-08-21T05:40:48;17.30;99.90
67752;DHT22;54551;51.068;5.826;2022-08-21T05:43:14;17.30;99.90
67752;DHT22;54551;51.068;5.826;2022-08-21T05:45:40;17.30;99.90
67752;DHT22;54551;51.068;5.826;2022-08-21T05:48:08;17.30;99.90
67752;DHT22;54551;51.068;5.826;2022-08-21T05:50:34;17.30;99.90
67752;DHT22;54551;51.068;5.826;2022-08-21T05:53:00;17.40;99.90
67752;DHT22;54551;51.068;5.826;2022-08-21T05:55:26;17.40;99.90
67752;DHT22;54551;51.068;5.826;2022-08-21T05:57:52;17.40;99.90
67752;DHT22;54551;51.068;5.826;2022-08-21T06:00:18;17.50;99.90
67752;DHT22;54551;51.068;5.826;2022-08-21T06:02:44;17.50;99.90
67752;DHT22;54551;51.068;5.826;2022-08-21T06:05:10;17.50;99.90
67752;DHT22;54551;51.068;5.826;2022-08-21T06:07:35;17.50;99.90
67752;DHT22;54551;51.068;5.826;2022-08-21T06:10:02;17.60;99.90
67752;DHT22;54551;51.068;5.826;2022-08-21T06:12:28;17.60;99.90
67752;DHT22;54551;51.068;5.826;2022-08-21T06:14:54;17.60;99.90
67752;DHT22;54551;51.068;5.826;2022-08-21T06:17:20;17.70;99.90
67752;DHT22;54551;51.068;5.826;2022-08-21T06:19:51;17.70;99.90
67752;DHT22;54551;51.068;5.826;2022-08-21T06:22:17;17.70;99.90
67752;DHT22;54551;51.068;5.826;2022-08-21T06:24:43;17.80;99.90
67752;DHT22;54551;51.068;5.826;2022-08-21T06:27:09;17.80;99.90
67752;DHT22;54551;51.068;5.826;2022-08-21T06:29:35;17.90;99.90
67752;DHT22;54551;51.068;5.826;2022-08-21T06:32:02;17.90;99.90
67752;DHT22;54551;51.068;5.826;2022-08-21T06:34:28;18.00;99.90
67752;DHT22;54551;51.068;5.826;2022-08-21T06:36:54;18.00;99.90
67752;DHT22;54551;51.068;5.826;2022-08-21T06:39:20;18.10;99.90
67752;DHT22;54551;51.068;5.826;2022-08-21T06:41:46;18.20;99.90
67752;DHT22;54551;51.068;5.826;2022-08-21T06:44:16;18.20;99.90
67752;DHT22;54551;51.068;5.826;2022-08-21T06:46:42;18.20;99.90
67752;DHT22;54551;51.068;5.826;2022-08-21T06:49:08;18.20;99.90
67752;DHT22;54551;51.068;5.826;2022-08-21T06:51:34;18.30;99.90
67752;DHT22;54551;51.068;5.826;2022-08-21T06:53:59;18.30;99.90
67752;DHT22;54551;51.068;5.826;2022-08-21T06:56:25;18.40;99.90
67752;DHT22;54551;51.068;5.826;2022-08-21T06:58:51;18.40;99.90
67752;DHT22;54551;51.068;5.826;2022-08-21T07:01:20;18.50;99.90
67752;DHT22;54551;51.068;5.826;2022-08-21T07:03:46;18.60;99.90
67752;DHT22;54551;51.068;5.826;2022-08-21T07:06:12;18.60;99.90
67752;DHT22;54551;51.068;5.826;2022-08-21T07:08:38;18.70;99.90
67752;DHT22;54551;51.068;5.826;2022-08-21T07:11:11;18.70;99.90
67752;DHT22;54551;51.068;5.826;2022-08-21T07:13:37;18.80;99.90
67752;DHT22;54551;51.068;5.826;2022-08-21T07:16:03;18.80;99.90
67752;DHT22;54551;51.068;5.826;2022-08-21T07:18:29;18.80;99.90
67752;DHT22;54551;51.068;5.826;2022-08-21T07:20:55;19.00;99.90
67752;DHT22;54551;51.068;5.826;2022-08-21T07:23:28;19.20;99.90
67752;DHT22;54551;51.068;5.826;2022-08-21T07:25:55;19.70;99.90
67752;DHT22;54551;51.068;5.826;2022-08-21T07:28:21;20.80;99.90
67752;DHT22;54551;51.068;5.826;2022-08-21T07:30:51;22.00;99.90
67752;DHT22;54551;51.068;5.826;2022-08-21T07:33:18;23.20;99.90
67752;DHT22;54551;51.068;5.826;2022-08-21T07:35:44;23.90;99.90
67752;DHT22;54551;51.068;5.826;2022-08-21T07:38:09;24.50;99.90
67752;DHT22;54551;51.068;5.826;2022-08-21T07:40:36;25.00;99.90
67752;DHT22;54551;51.068;5.826;2022-08-21T07:43:01;25.10;99.90
67752;DHT22;54551;51.068;5.826;2022-08-21T07:45:28;25.10;99.90
67752;DHT22;54551;51.068;5.826;2022-08-21T07:47:55;25.30;99.90
67752;DHT22;54551;51.068;5.826;2022-08-21T07:50:20;25.60;99.90
67752;DHT22;54551;51.068;5.826;2022-08-21T07:52:47;25.70;99.90
67752;DHT22;54551;51.068;5.826;2022-08-21T07:55:16;25.50;99.90
67752;DHT22;54551;51.068;5.826;2022-08-21T07:57:43;25.20;99.90
67752;DHT22;54551;51.068;5.826;2022-08-21T08:00:13;24.80;99.90
67752;DHT22;54551;51.068;5.826;2022-08-21T08:02:40;24.50;99.90
67752;DHT22;54551;51.068;5.826;2022-08-21T08:05:08;24.30;99.90
67752;DHT22;54551;51.068;5.826;2022-08-21T08:07:35;24.10;99.90
67752;DHT22;54551;51.068;5.826;2022-08-21T08:10:02;24.00;99.90
67752;DHT22;54551;51.068;5.826;2022-08-21T08:12:28;23.90;99.90
67752;DHT22;54551;51.068;5.826;2022-08-21T08:14:59;23.80;99.90
67752;DHT22;54551;51.068;5.826;2022-08-21T08:17:25;23.80;99.90
67752;DHT22;54551;51.068;5.826;2022-08-21T08:19:52;23.70;99.90
67752;DHT22;54551;51.068;5.826;2022-08-21T08:22:22;23.70;99.90
67752;DHT22;54551;51.068;5.826;2022-08-21T08:24:51;23.50;99.90
67752;DHT22;54551;51.068;5.826;2022-08-21T08:27:18;23.40;99.90
67752;DHT22;54551;51.068;5.826;2022-08-21T08:29:44;23.20;99.90
67752;DHT22;54551;51.068;5.826;2022-08-21T08:32:11;23.20;99.90
67752;DHT22;54551;51.068;5.826;2022-08-21T08:34:38;23.30;99.90
67752;DHT22;54551;51.068;5.826;2022-08-21T08:37:05;23.40;99.90
67752;DHT22;54551;51.068;5.826;2022-08-21T08:39:32;23.60;99.90
67752;DHT22;54551;51.068;5.826;2022-08-21T08:44:41;23.90;99.90
67752;DHT22;54551;51.068;5.826;2022-08-21T08:47:10;23.80;99.90
67752;DHT22;54551;51.068;5.826;2022-08-21T08:49:48;23.90;99.90
67752;DHT22;54551;51.068;5.826;2022-08-21T08:52:26;24.10;99.90
67752;DHT22;54551;51.068;5.826;2022-08-21T08:57:37;24.40;99.90
67752;DHT22;54551;51.068;5.826;2022-08-21T09:00:08;24.60;99.90
67752;DHT22;54551;51.068;5.826;2022-08-21T09:02:38;24.90;99.90
67752;DHT22;54551;51.068;5.826;2022-08-21T09:05:05;25.30;99.90
67752;DHT22;54551;51.068;5.826;2022-08-21T09:07:43;25.70;99.90
67752;DHT22;54551;51.068;5.826;2022-08-21T09:10:20;26.30;99.90
67752;DHT22;54551;51.068;5.826;2022-08-21T09:18:05;29.50;98.20
67752;DHT22;54551;51.068;5.826;2022-08-21T09:20:41;30.50;97.30
67752;DHT22;54551;51.068;5.826;2022-08-21T09:26:18;32.20;91.80
67752;DHT22;54551;51.068;5.826;2022-08-21T09:28:44;32.80;90.30
67752;DHT22;54551;51.068;5.826;2022-08-21T09:31:33;33.20;87.10
67752;DHT22;54551;51.068;5.826;2022-08-21T09:34:05;33.40;84.60
67752;DHT22;54551;51.068;5.826;2022-08-21T09:36:47;33.80;83.20
67752;DHT22;54551;51.068;5.826;2022-08-21T09:39:27;34.00;79.80
67752;DHT22;54551;51.068;5.826;2022-08-21T09:42:03;34.00;78.50
67752;DHT22;54551;51.068;5.826;2022-08-21T09:44:32;33.80;77.60
67752;DHT22;54551;51.068;5.826;2022-08-21T09:46:59;33.70;77.30
67752;DHT22;54551;51.068;5.826;2022-08-21T09:49:33;33.60;77.70
67752;DHT22;54551;51.068;5.826;2022-08-21T09:52:06;33.60;77.20
67752;DHT22;54551;51.068;5.826;2022-08-21T09:54:45;33.50;77.20
67752;DHT22;54551;51.068;5.826;2022-08-21T09:57:25;33.50;77.40
67752;DHT22;54551;51.068;5.826;2022-08-21T10:00:25;33.60;76.70
67752;DHT22;54551;51.068;5.826;2022-08-21T10:02:51;33.90;74.00
67752;DHT22;54551;51.068;5.826;2022-08-21T10:05:29;33.80;74.30
67752;DHT22;54551;51.068;5.826;2022-08-21T10:07:55;33.90;75.00
67752;DHT22;54551;51.068;5.826;2022-08-21T10:10:29;33.90;74.70
67752;DHT22;54551;51.068;5.826;2022-08-21T10:16:15;34.20;74.20
67752;DHT22;54551;51.068;5.826;2022-08-21T10:27:51;34.50;69.80
67752;DHT22;54551;51.068;5.826;2022-08-21T10:33:01;34.40;68.90
67752;DHT22;54551;51.068;5.826;2022-08-21T10:35:51;34.60;68.60
67752;DHT22;54551;51.068;5.826;2022-08-21T10:41:17;34.50;69.00
67752;DHT22;54551;51.068;5.826;2022-08-21T10:46:54;34.80;65.90
67752;DHT22;54551;51.068;5.826;2022-08-21T10:55:10;35.00;67.30
67752;DHT22;54551;51.068;5.826;2022-08-21T11:00:21;35.60;65.50
67752;DHT22;54551;51.068;5.826;2022-08-21T11:03:04;35.70;64.00
67752;DHT22;54551;51.068;5.826;2022-08-21T11:05:45;35.60;63.30
67752;DHT22;54551;51.068;5.826;2022-08-21T11:11:04;35.30;62.10
67752;DHT22;54551;51.068;5.826;2022-08-21T11:13:53;35.10;62.80
67752;DHT22;54551;51.068;5.826;2022-08-21T11:16:35;34.70;63.90
67752;DHT22;54551;51.068;5.826;2022-08-21T11:19:22;34.60;63.20
67752;DHT22;54551;51.068;5.826;2022-08-21T11:27:38;34.40;64.80
67752;DHT22;54551;51.068;5.826;2022-08-21T11:30:07;34.50;64.50
67752;DHT22;54551;51.068;5.826;2022-08-21T11:35:34;34.90;63.20
67752;DHT22;54551;51.068;5.826;2022-08-21T11:38:18;35.10;62.30
67752;DHT22;54551;51.068;5.826;2022-08-21T11:43:43;35.10;63.80
67752;DHT22;54551;51.068;5.826;2022-08-21T11:51:37;35.10;62.10
67752;DHT22;54551;51.068;5.826;2022-08-21T11:56:51;35.30;60.50
67752;DHT22;54551;51.068;5.826;2022-08-21T12:02:09;35.50;59.70
67752;DHT22;54551;51.068;5.826;2022-08-21T12:04:46;35.10;59.60
67752;DHT22;54551;51.068;5.826;2022-08-21T12:07:28;34.50;60.20
67752;DHT22;54551;51.068;5.826;2022-08-21T12:09:56;34.20;61.20
67752;DHT22;54551;51.068;5.826;2022-08-21T12:12:27;34.30;61.60
67752;DHT22;54551;51.068;5.826;2022-08-21T12:17:56;35.10;60.10
67752;DHT22;54551;51.068;5.826;2022-08-21T12:20:44;35.00;59.10
67752;DHT22;54551;51.068;5.826;2022-08-21T12:23:28;34.70;58.70
67752;DHT22;54551;51.068;5.826;2022-08-21T12:26:23;34.60;59.70
67752;DHT22;54551;51.068;5.826;2022-08-21T12:28:50;34.70;59.60
67752;DHT22;54551;51.068;5.826;2022-08-21T12:31:22;34.70;59.50
67752;DHT22;54551;51.068;5.826;2022-08-21T12:33:58;34.70;58.90
67752;DHT22;54551;51.068;5.826;2022-08-21T12:36:40;34.40;59.40
67752;DHT22;54551;51.068;5.826;2022-08-21T12:39:13;34.50;60.10
67752;DHT22;54551;51.068;5.826;2022-08-21T12:42:06;34.60;58.70
67752;DHT22;54551;51.068;5.826;2022-08-21T12:44:43;34.90;59.10
67752;DHT22;54551;51.068;5.826;2022-08-21T12:47:35;35.30;58.10
67752;DHT22;54551;51.068;5.826;2022-08-21T12:50:09;35.40;59.00
67752;DHT22;54551;51.068;5.826;2022-08-21T12:52:44;35.40;58.90
67752;DHT22;54551;51.068;5.826;2022-08-21T12:55:13;35.40;58.40
67752;DHT22;54551;51.068;5.826;2022-08-21T12:57:40;35.10;58.00
67752;DHT22;54551;51.068;5.826;2022-08-21T13:00:11;35.00;58.30
67752;DHT22;54551;51.068;5.826;2022-08-21T13:02:49;34.60;59.20
67752;DHT22;54551;51.068;5.826;2022-08-21T13:05:32;34.50;59.30
67752;DHT22;54551;51.068;5.826;2022-08-21T13:08:02;34.10;59.30
67752;DHT22;54551;51.068;5.826;2022-08-21T13:10:31;34.00;59.30
67752;DHT22;54551;51.068;5.826;2022-08-21T13:13:00;34.00;59.30
67752;DHT22;54551;51.068;5.826;2022-08-21T13:15:35;33.80;59.50
67752;DHT22;54551;51.068;5.826;2022-08-21T13:18:03;33.80;61.50
67752;DHT22;54551;51.068;5.826;2022-08-21T13:20:38;33.60;60.90
67752;DHT22;54551;51.068;5.826;2022-08-21T13:23:20;33.60;61.20
67752;DHT22;54551;51.068;5.826;2022-08-21T13:25:46;33.70;60.40
67752;DHT22;54551;51.068;5.826;2022-08-21T13:28:12;33.90;60.40
67752;DHT22;54551;51.068;5.826;2022-08-21T13:30:51;34.00;59.90
67752;DHT22;54551;51.068;5.826;2022-08-21T13:33:20;34.00;61.10
67752;DHT22;54551;51.068;5.826;2022-08-21T13:36:10;34.30;59.60
67752;DHT22;54551;51.068;5.826;2022-08-21T13:38:39;34.40;59.20
67752;DHT22;54551;51.068;5.826;2022-08-21T13:41:24;34.40;59.70
67752;DHT22;54551;51.068;5.826;2022-08-21T13:43:58;34.50;59.10
67752;DHT22;54551;51.068;5.826;2022-08-21T13:46:27;34.70;58.20
67752;DHT22;54551;51.068;5.826;2022-08-21T13:48:54;34.70;59.50
67752;DHT22;54551;51.068;5.826;2022-08-21T13:51:21;34.80;60.00
67752;DHT22;54551;51.068;5.826;2022-08-21T13:53:49;35.00;58.70
67752;DHT22;54551;51.068;5.826;2022-08-21T13:56:32;35.00;58.70
67752;DHT22;54551;51.068;5.826;2022-08-21T13:59:00;35.20;58.30
67752;DHT22;54551;51.068;5.826;2022-08-21T14:01:27;35.30;57.00
67752;DHT22;54551;51.068;5.826;2022-08-21T14:03:59;35.10;56.70
67752;DHT22;54551;51.068;5.826;2022-08-21T14:06:32;35.00;56.70
67752;DHT22;54551;51.068;5.826;2022-08-21T14:09:00;34.50;58.20
67752;DHT22;54551;51.068;5.826;2022-08-21T14:11:32;34.50;57.10
67752;DHT22;54551;51.068;5.826;2022-08-21T14:14:11;34.20;58.90
67752;DHT22;54551;51.068;5.826;2022-08-21T14:17:00;34.10;59.60
67752;DHT22;54551;51.068;5.826;2022-08-21T14:19:42;33.70;58.40
67752;DHT22;54551;51.068;5.826;2022-08-21T14:22:31;33.30;58.90
67752;DHT22;54551;51.068;5.826;2022-08-21T14:27:42;32.50;59.40
67752;DHT22;54551;51.068;5.826;2022-08-21T14:30:17;32.10;61.50
67752;DHT22;54551;51.068;5.826;2022-08-21T14:32:45;31.80;62.20
67752;DHT22;54551;51.068;5.826;2022-08-21T14:35:11;31.50;62.50
67752;DHT22;54551;51.068;5.826;2022-08-21T14:37:40;31.10;61.80
67752;DHT22;54551;51.068;5.826;2022-08-21T14:40:07;30.90;63.30
67752;DHT22;54551;51.068;5.826;2022-08-21T14:42:33;30.70;62.90
67752;DHT22;54551;51.068;5.826;2022-08-21T14:45:13;30.50;63.90
67752;DHT22;54551;51.068;5.826;2022-08-21T14:47:39;30.30;64.90
67752;DHT22;54551;51.068;5.826;2022-08-21T14:50:05;30.20;65.60
67752;DHT22;54551;51.068;5.826;2022-08-21T14:52:32;30.10;65.90
67752;DHT22;54551;51.068;5.826;2022-08-21T14:54:58;30.00;65.30
67752;DHT22;54551;51.068;5.826;2022-08-21T14:57:24;29.80;64.80
67752;DHT22;54551;51.068;5.826;2022-08-21T14:59:51;29.60;66.10
67752;DHT22;54551;51.068;5.826;2022-08-21T15:02:17;29.40;66.80
67752;DHT22;54551;51.068;5.826;2022-08-21T15:04:43;29.30;65.60
67752;DHT22;54551;51.068;5.826;2022-08-21T15:07:09;29.10;65.60
67752;DHT22;54551;51.068;5.826;2022-08-21T15:09:35;29.00;67.10
67752;DHT22;54551;51.068;5.826;2022-08-21T15:12:02;29.00;67.30
67752;DHT22;54551;51.068;5.826;2022-08-21T15:14:30;29.00;66.00
67752;DHT22;54551;51.068;5.826;2022-08-21T15:16:57;28.80;67.40
67752;DHT22;54551;51.068;5.826;2022-08-21T15:19:24;28.60;68.40
67752;DHT22;54551;51.068;5.826;2022-08-21T15:21:50;28.40;69.20
67752;DHT22;54551;51.068;5.826;2022-08-21T15:24:16;28.30;69.20
67752;DHT22;54551;51.068;5.826;2022-08-21T15:26:43;28.10;69.30
67752;DHT22;54551;51.068;5.826;2022-08-21T15:29:09;28.00;70.10
67752;DHT22;54551;51.068;5.826;2022-08-21T15:31:36;27.90;71.40
67752;DHT22;54551;51.068;5.826;2022-08-21T15:34:02;27.80;72.10
67752;DHT22;54551;51.068;5.826;2022-08-21T15:36:28;27.80;72.20
67752;DHT22;54551;51.068;5.826;2022-08-21T15:38:54;27.70;72.60
67752;DHT22;54551;51.068;5.826;2022-08-21T15:41:20;27.70;72.30
67752;DHT22;54551;51.068;5.826;2022-08-21T15:43:49;27.60;71.90
67752;DHT22;54551;51.068;5.826;2022-08-21T15:46:16;27.60;71.60
67752;DHT22;54551;51.068;5.826;2022-08-21T15:48:43;27.60;71.10
67752;DHT22;54551;51.068;5.826;2022-08-21T15:51:10;27.70;72.60
67752;DHT22;54551;51.068;5.826;2022-08-21T15:53:36;27.70;73.50
67752;DHT22;54551;51.068;5.826;2022-08-21T15:56:26;27.50;72.50
67752;DHT22;54551;51.068;5.826;2022-08-21T15:58:59;27.40;73.50
67752;DHT22;54551;51.068;5.826;2022-08-21T16:01:26;27.00;73.00
67752;DHT22;54551;51.068;5.826;2022-08-21T16:03:52;26.80;74.80
67752;DHT22;54551;51.068;5.826;2022-08-21T16:06:19;26.80;76.00
67752;DHT22;54551;51.068;5.826;2022-08-21T16:08:45;26.80;75.50
67752;DHT22;54551;51.068;5.826;2022-08-21T16:11:14;26.80;74.80
67752;DHT22;54551;51.068;5.826;2022-08-21T16:13:42;26.70;75.30
67752;DHT22;54551;51.068;5.826;2022-08-21T16:16:16;26.70;76.80
67752;DHT22;54551;51.068;5.826;2022-08-21T16:18:42;26.60;76.70
67752;DHT22;54551;51.068;5.826;2022-08-21T16:21:08;26.60;76.90
67752;DHT22;54551;51.068;5.826;2022-08-21T16:23:35;26.60;77.50
67752;DHT22;54551;51.068;5.826;2022-08-21T16:26:02;26.60;77.00
67752;DHT22;54551;51.068;5.826;2022-08-21T16:28:30;26.60;77.60
67752;DHT22;54551;51.068;5.826;2022-08-21T16:30:56;26.60;78.20
67752;DHT22;54551;51.068;5.826;2022-08-21T16:33:43;26.70;78.00
67752;DHT22;54551;51.068;5.826;2022-08-21T16:36:11;26.70;77.30
67752;DHT22;54551;51.068;5.826;2022-08-21T16:38:38;26.70;76.90
67752;DHT22;54551;51.068;5.826;2022-08-21T16:41:09;26.70;78.30
67752;DHT22;54551;51.068;5.826;2022-08-21T16:43:38;26.60;78.40
67752;DHT22;54551;51.068;5.826;2022-08-21T16:46:05;26.50;78.10
67752;DHT22;54551;51.068;5.826;2022-08-21T16:48:31;26.50;79.80
67752;DHT22;54551;51.068;5.826;2022-08-21T16:50:57;26.40;77.60
67752;DHT22;54551;51.068;5.826;2022-08-21T16:53:23;26.20;78.00
67752;DHT22;54551;51.068;5.826;2022-08-21T16:55:50;26.10;77.40
67752;DHT22;54551;51.068;5.826;2022-08-21T16:58:24;26.00;78.70